Time;durP1;ratioP1;P1;durP2;ratioP2;P2;SDS_P1;SDS_P2;PMS_P1;PMS_P2;Temp;Humidity;BMP_temperature;BMP_pressure;BME280_temperature;BME280_humidity;BME280_pressure;Samples;Min_cycle;Max_cycle;Signal;HPM_P1;HPM_P2
2023/08/31 00:01:15;;;;;;;6.65;4.87;;;;;;;15.19;100.00;99804.93;5096665;56;1138682;-67
2023/08/31 00:06:21;;;;;;;7.77;4.80;;;;;;;15.27;100.00;99806.28;5114872;56;1139024;-66
2023/08/31 00:11:33;;;;;;;5.47;4.27;;;;;;;15.26;100.00;99809.95;5074688;56;1138880;-67
2023/08/31 00:16:38;;;;;;;5.67;4.07;;;;;;;15.19;100.00;99803.59;5097581;56;1138735;-67
2023/08/31 00:21:44;;;;;;;3.57;3.27;;;;;;;15.18;100.00;99806.76;5127616;56;1138893;-67
2023/08/31 00:26:51;;;;;;;6.77;4.23;;;;;;;15.16;100.00;99817.24;5120794;56;1138685;-68
2023/08/31 00:31:57;;;;;;;4.70;3.27;;;;;;;15.20;100.00;99823.41;5129863;56;1138640;-66
2023/08/31 00:37:04;;;;;;;10.57;3.20;;;;;;;15.24;100.00;99820.77;5110809;56;1138724;-65
2023/08/31 00:42:10;;;;;;;9.50;4.33;;;;;;;15.23;100.00;99828.91;5089934;56;1140613;-65
2023/08/31 00:47:17;;;;;;;3.53;3.03;;;;;;;15.08;100.00;99819.41;5061511;56;1138953;-67
2023/08/31 00:52:22;;;;;;;3.00;2.70;;;;;;;14.97;100.00;99827.73;5075966;57;1138891;-66
2023/08/31 00:57:29;;;;;;;9.17;2.80;;;;;;;14.92;100.00;99817.56;5084973;56;1138631;-67
2023/08/31 01:03:04;;;;;;;5.13;3.37;;;;;;;14.86;100.00;99813.38;5070786;56;1139119;-66
2023/08/31 01:08:33;;;;;;;7.15;3.50;;;;;;;14.83;100.00;99790.56;5118880;56;1138819;-67
2023/08/31 01:13:42;;;;;;;3.23;3.03;;;;;;;14.83;100.00;99790.56;5144037;56;1138540;-67
2023/08/31 01:18:48;;;;;;;5.08;2.72;;;;;;;14.85;100.00;99794.41;4959916;58;1138822;-66
2023/08/31 01:23:58;;;;;;;4.50;3.77;;;;;;;14.80;100.00;99796.25;4960845;58;1138967;-67
2023/08/31 01:29:04;;;;;;;6.85;3.58;;;;;;;14.73;100.00;99793.39;5075995;57;1138793;-67
2023/08/31 01:34:10;;;;;;;4.50;3.73;;;;;;;14.75;100.00;99785.25;5056144;57;1138688;-67
2023/08/31 01:39:25;;;;;;;9.28;4.33;;;;;;;14.81;100.00;99783.77;5055957;57;1138852;-67
2023/08/31 01:44:35;;;;;;;4.97;4.17;;;;;;;14.83;100.00;99779.92;4900859;58;1138787;-67
2023/08/31 01:49:43;;;;;;;8.57;4.43;;;;;;;14.85;100.00;99782.42;5077675;55;1138846;-66
2023/08/31 01:54:49;;;;;;;8.93;4.40;;;;;;;14.86;100.00;99780.09;5217021;54;1138700;-67
2023/08/31 01:59:55;;;;;;;6.60;4.57;;;;;;;14.84;100.00;99780.26;5309957;54;1138877;-67
2023/08/31 02:05:01;;;;;;;9.35;4.85;;;;;;;14.91;100.00;99776.45;5121816;55;1138829;-67
2023/08/31 02:10:07;;;;;;;6.60;5.08;;;;;;;14.96;100.00;99779.47;5289080;54;1138723;-67
2023/08/31 02:15:13;;;;;;;11.25;4.85;;;;;;;14.94;100.00;99777.46;5057963;55;1138918;-66
2023/08/31 02:20:20;;;;;;;10.73;5.17;;;;;;;15.01;100.00;99779.28;5098792;55;1140969;-67
2023/08/31 02:25:27;;;;;;;5.37;4.87;;;;;;;15.04;100.00;99786.11;5056810;56;1140642;-65
2023/08/31 02:30:33;;;;;;;10.10;5.10;;;;;;;14.95;100.00;99787.12;5143566;55;1138721;-68
2023/08/31 02:35:39;;;;;;;5.57;4.80;;;;;;;14.86;100.00;99787.59;5310246;54;1140750;-66
2023/08/31 02:40:48;;;;;;;9.00;5.03;;;;;;;14.74;100.00;99799.05;5289841;54;1138482;-65
2023/08/31 02:46:04;;;;;;;8.23;5.37;;;;;;;14.71;100.00;99792.72;5071998;55;1138684;-68
2023/08/31 02:51:10;;;;;;;8.60;4.80;;;;;;;14.71;100.00;99782.07;5228028;54;1138937;-67
2023/08/31 02:56:15;;;;;;;12.37;5.57;;;;;;;14.78;100.00;99779.11;5265136;54;1139158;-66
2023/08/31 03:01:21;;;;;;;5.90;4.90;;;;;;;14.83;100.00;99783.91;5264034;54;1140848;-66
2023/08/31 03:06:28;;;;;;;13.37;5.13;;;;;;;14.94;100.00;99782.78;5247337;54;1138841;-65
2023/08/31 03:11:34;;;;;;;12.27;5.50;;;;;;;14.99;100.00;99789.76;5289680;55;1140913;-66
2023/08/31 03:16:40;;;;;;;9.43;7.63;;;;;;;15.03;100.00;99785.28;5239634;54;1140704;-66
2023/08/31 03:21:45;;;;;;;12.17;6.80;;;;;;;15.06;100.00;99783.62;5272245;55;1138875;-67
2023/08/31 03:26:51;;;;;;;6.93;5.43;;;;;;;14.96;100.00;99779.47;5296793;55;1140689;-68
2023/08/31 03:31:58;;;;;;;8.37;5.47;;;;;;;14.88;100.00;99784.77;5276380;55;1138519;-65
2023/08/31 03:37:04;;;;;;;4.90;4.53;;;;;;;14.76;100.00;99789.08;5276943;55;1138732;-67
2023/08/31 03:42:11;;;;;;;4.70;4.25;;;;;;;14.72;100.00;99782.91;5276405;55;1138830;-67
2023/08/31 03:47:17;;;;;;;9.38;4.30;;;;;;;14.72;100.00;99775.75;5276683;54;1138943;-66
2023/08/31 03:52:23;;;;;;;8.23;5.30;;;;;;;14.75;100.00;99771.44;5264299;55;1138741;-67
2023/08/31 03:57:28;;;;;;;10.20;5.20;;;;;;;14.86;100.00;99778.27;5229749;54;1138996;-68
2023/08/31 04:02:37;;;;;;;8.93;5.90;;;;;;;14.94;100.00;99770.30;5123074;55;1140875;-67
2023/08/31 04:07:44;;;;;;;11.53;4.78;;;;;;;14.98;100.00;99768.12;5044968;57;1138601;-66
2023/08/31 04:12:50;;;;;;;8.30;4.20;;;;;;;14.98;100.00;99777.44;5051724;56;1140794;-68
2023/08/31 04:17:56;;;;;;;5.53;4.30;;;;;;;14.98;100.00;99780.10;5057031;56;1145905;-68
2023/08/31 04:23:02;;;;;;;8.25;4.75;;;;;;;14.94;100.00;99774.30;5082577;56;1138902;-67
2023/08/31 04:28:08;;;;;;;4.33;3.93;;;;;;;14.81;100.00;99764.64;5063808;56;1139085;-65
2023/08/31 04:33:13;;;;;;;5.73;3.90;;;;;;;14.75;100.00;99778.59;5108964;55;1138889;-66
2023/08/31 04:38:19;;;;;;;4.97;4.27;;;;;;;14.82;100.00;99781.45;5064949;57;1138717;-66
2023/08/31 04:43:25;;;;;;;9.33;4.50;;;;;;;14.92;100.00;99774.95;5235749;54;1138721;-67
2023/08/31 04:48:30;;;;;;;7.73;5.03;;;;;;;14.91;100.00;99781.28;5227341;54;1138672;-67
2023/08/31 04:53:36;;;;;;;6.07;4.17;;;;;;;14.84;100.00;99774.94;5252499;54;1138762;-66
2023/08/31 04:58:41;;;;;;;5.27;4.77;;;;;;;14.80;100.00;99782.10;5229267;54;1138650;-66
2023/08/31 05:03:47;;;;;;;6.70;4.57;;;;;;;14.78;100.00;99791.08;5150109;55;1139150;-66
2023/08/31 05:08:53;;;;;;;5.70;5.10;;;;;;;14.84;100.00;99784.75;5242674;55;1138583;-66
2023/08/31 05:13:59;;;;;;;9.87;5.90;;;;;;;14.88;100.00;99784.27;4964022;56;1138692;-66
2023/08/31 05:19:04;;;;;;;8.83;5.97;;;;;;;14.78;100.00;99783.59;4997669;56;1138656;-65
2023/08/31 05:24:10;;;;;;;12.65;6.42;;;;;;;14.78;100.00;99786.26;5144177;55;1138860;-67
2023/08/31 05:29:16;;;;;;;9.73;5.83;;;;;;;14.79;100.00;99782.60;5160903;55;1140936;-67
2023/08/31 05:34:23;;;;;;;14.20;7.30;;;;;;;14.85;100.00;99781.92;4936618;57;1138654;-66
2023/08/31 05:39:29;;;;;;;8.87;7.33;;;;;;;14.93;100.00;99784.61;4877666;58;1140727;-66
2023/08/31 05:44:34;;;;;;;7.10;5.03;;;;;;;14.98;100.00;99806.73;4918679;58;1138769;-66
2023/08/31 05:49:40;;;;;;;6.40;5.77;;;;;;;14.96;100.00;99801.59;4956401;57;1138793;-67
2023/08/31 05:54:45;;;;;;;13.57;8.07;;;;;;;14.95;100.00;99802.59;4951274;56;1139045;-66
2023/08/31 05:59:51;;;;;;;7.57;5.93;;;;;;;15.09;100.00;99800.61;4979822;56;1140913;-66
2023/08/31 06:04:57;;;;;;;11.00;6.97;;;;;;;15.26;100.00;99820.59;5167275;53;1138686;-67
2023/08/31 06:10:03;;;;;;;8.67;7.77;;;;;;;15.32;100.00;99814.59;5159976;55;1140910;-67
2023/08/31 06:15:09;;;;;;;9.00;6.67;;;;;;;15.48;100.00;99807.42;5181336;54;1140915;-66
2023/08/31 06:20:14;;;;;;;10.08;7.22;;;;;;;15.66;100.00;99805.11;5228824;54;1138703;-67
2023/08/31 06:25:22;;;;;;;16.00;7.40;;;;;;;15.90;100.00;99806.38;5204124;54;1140906;-67
2023/08/31 06:30:28;;;;;;;10.13;6.50;;;;;;;16.13;100.00;99807.33;5198142;54;1140821;-66
2023/08/31 06:35:33;;;;;;;7.20;6.00;;;;;;;16.27;100.00;99813.78;5214476;54;1140910;-66
2023/08/31 06:40:39;;;;;;;10.00;6.53;;;;;;;16.33;100.00;99813.60;5196969;55;1138691;-66
2023/08/31 06:45:44;;;;;;;10.87;6.43;;;;;;;16.31;100.00;99834.28;5184420;54;1141012;-66
2023/08/31 06:50:50;;;;;;;10.20;6.37;;;;;;;16.33;100.00;99838.45;5253184;53;1140708;-66
2023/08/31 06:55:55;;;;;;;12.17;6.80;;;;;;;16.27;100.00;99845.80;5193211;54;1140862;-67
2023/08/31 07:01:02;;;;;;;9.87;6.23;;;;;;;16.17;100.00;99858.02;5177034;54;1149390;-67
2023/08/31 07:06:07;;;;;;;11.68;8.18;;;;;;;16.12;100.00;99864.35;5248678;54;1138773;-66
2023/08/31 07:11:13;;;;;;;7.75;6.80;;;;;;;15.97;100.00;99866.55;5093975;56;1140702;-65
2023/08/31 07:16:19;;;;;;;8.87;7.90;;;;;;;15.89;100.00;99861.25;5216506;54;1138886;-66
2023/08/31 07:21:24;;;;;;;13.25;6.67;;;;;;;15.89;100.00;99869.25;5229727;54;1138826;-66
2023/08/31 07:26:30;;;;;;;8.30;7.40;;;;;;;15.91;100.00;99867.22;5254140;54;1140672;-66
2023/08/31 07:31:36;;;;;;;8.90;8.00;;;;;;;15.88;100.00;99867.08;5273811;54;1138728;-65
2023/08/31 07:36:42;;;;;;;12.57;7.40;;;;;;;15.90;100.00;99873.05;5074084;55;1139126;-66
2023/08/31 07:41:47;;;;;;;8.70;7.80;;;;;;;15.96;100.00;99883.55;5218576;55;1141078;-65
2023/08/31 07:46:53;;;;;;;7.43;6.83;;;;;;;15.88;100.00;99895.58;5246913;54;1138758;-66
2023/08/31 07:51:58;;;;;;;9.54;7.26;;;;;;;15.80;100.00;99899.91;5288126;54;1138616;-66
2023/08/31 07:57:04;;;;;;;8.40;6.40;;;;;;;15.87;100.00;99904.58;5248116;54;1138690;-67
2023/08/31 08:02:10;;;;;;;10.17;7.03;;;;;;;15.91;100.00;99906.72;5221588;54;1138569;-65
2023/08/31 08:07:15;;;;;;;6.50;5.90;;;;;;;15.88;100.00;99909.75;5197304;54;1140786;-66
2023/08/31 08:12:21;;;;;;;9.40;6.17;;;;;;;15.89;100.00;99917.25;5263634;55;1138912;-65
2023/08/31 08:17:26;;;;;;;8.07;5.83;;;;;;;15.88;100.00;99913.75;5234190;54;1138956;-65
2023/08/31 08:22:32;;;;;;;5.97;5.47;;;;;;;15.94;100.00;99915.72;5086024;55;1138827;-65
2023/08/31 08:27:38;;;;;;;7.40;5.00;;;;;;;16.01;100.00;99914.56;5019701;56;1138918;-66
2023/08/31 08:32:46;;;;;;;5.10;4.60;;;;;;;16.17;100.00;99918.05;4970053;56;1138693;-66
2023/08/31 08:37:53;;;;;;;8.77;4.13;;;;;;;16.30;100.00;99926.85;5079790;55;1138820;-66
2023/08/31 08:43:02;;;;;;;4.17;3.87;;;;;;;16.32;100.00;99940.86;5070431;56;1138575;-66
2023/08/31 08:48:08;;;;;;;4.70;4.10;;;;;;;16.22;100.00;99931.36;5025073;56;1138815;-66
2023/08/31 08:53:15;;;;;;;5.20;3.90;;;;;;;16.17;100.00;99947.89;5104263;56;1138842;-65
2023/08/31 08:58:20;;;;;;;4.07;3.77;;;;;;;16.14;100.00;99956.23;5102862;55;1138635;-67
2023/08/31 09:03:26;;;;;;;6.30;3.87;;;;;;;16.00;100.00;99965.74;5099701;56;1138739;-66
2023/08/31 09:08:32;;;;;;;4.40;3.97;;;;;;;15.85;100.00;99967.91;5130175;56;1138640;-65
2023/08/31 09:13:38;;;;;;;5.63;4.47;;;;;;;15.76;100.00;99970.55;5122808;56;1138577;-65
2023/08/31 09:18:43;;;;;;;5.30;4.80;;;;;;;15.70;100.00;99980.56;5151745;56;1138551;-66
2023/08/31 09:23:59;;;;;;;5.40;4.17;;;;;;;15.64;100.00;99987.05;5121647;56;1138651;-67
2023/08/31 09:29:08;;;;;;;5.90;3.50;;;;;;;15.60;100.00;99988.36;5050149;56;1138730;-65
2023/08/31 09:34:17;;;;;;;4.17;3.87;;;;;;;15.62;100.00;100001.86;5061333;56;1138840;-64
2023/08/31 09:39:22;;;;;;;3.63;3.13;;;;;;;15.65;100.00;100008.20;5152144;56;1140868;-65
2023/08/31 09:44:28;;;;;;;4.90;3.20;;;;;;;15.65;100.00;100005.55;5086284;56;1140899;-65
2023/08/31 09:49:35;;;;;;;3.77;2.77;;;;;;;15.67;100.00;100006.71;5132562;56;1140745;-66
2023/08/31 09:54:43;;;;;;;4.83;2.80;;;;;;;15.72;100.00;100011.90;5145289;56;1140900;-66
2023/08/31 09:59:49;;;;;;;2.80;2.60;;;;;;;15.76;100.00;100021.72;5132351;56;1141048;-66
2023/08/31 10:04:56;;;;;;;9.03;3.23;;;;;;;15.75;100.00;100013.37;5123665;56;1140904;-67
2023/08/31 10:10:03;;;;;;;3.03;2.70;;;;;;;15.80;100.00;100003.90;5106316;56;1140662;-66
2023/08/31 10:15:10;;;;;;;2.90;2.70;;;;;;;15.91;100.00;100019.23;5055087;56;1140739;-66
2023/08/31 10:20:18;;;;;;;2.62;1.87;;;;;;;16.02;100.00;100037.10;5107014;56;1141058;-65
2023/08/31 10:25:26;;;;;;;2.03;1.83;;;;;;;16.02;100.00;100046.44;5130200;56;1140703;-65
2023/08/31 10:30:31;;;;;;;3.97;2.20;;;;;;;16.02;100.00;100025.59;5110391;56;1140840;-65
2023/08/31 10:35:55;;;;;;;4.63;2.23;;;;;;;16.06;100.00;100033.08;5098836;56;1140889;-66
2023/08/31 10:41:11;;;;;;;3.60;2.23;;;;;;;16.19;100.00;100028.61;5125125;56;1140789;-66
2023/08/31 10:46:35;;;;;;;2.50;2.35;;;;;;;16.21;100.00;100047.09;5110768;55;1140813;-66
2023/08/31 10:51:42;;;;;;;2.27;1.83;;;;;;;16.16;100.00;100030.27;5186741;56;1140891;-65
2023/08/31 10:57:12;;;;;;;2.70;2.50;;;;;;;16.17;100.00;100015.93;5237726;54;1140844;-66
2023/08/31 11:02:13;;;;;;;5.50;3.25;;;;;;;16.16;100.00;100023.09;5202521;55;1140993;-66
2023/08/31 11:07:20;;;;;;;5.55;2.83;;;;;;;16.10;100.00;100049.59;5198233;54;1146556;-66
2023/08/31 11:12:26;;;;;;;4.77;2.90;;;;;;;16.16;100.00;100048.44;5207250;55;1140980;-65
2023/08/31 11:17:40;;;;;;;5.07;3.57;;;;;;;16.31;100.00;100041.10;5283349;54;1141079;-64
2023/08/31 11:22:55;;;;;;;5.23;4.40;;;;;;;16.40;100.00;100032.08;5185125;54;1141005;-66
2023/08/31 11:28:08;;;;;;;10.63;5.73;;;;;;;16.45;100.00;100037.75;5211208;54;1140871;-65
2023/08/31 11:33:11;;;;;;;13.38;6.80;;;;;;;16.45;100.00;100035.92;5189494;54;1142970;-65
2023/08/31 11:38:17;;;;;;;6.83;4.53;;;;;;;16.47;100.00;100052.61;5186919;55;1143013;-66
2023/08/31 11:43:23;;;;;;;9.55;5.78;;;;;;;16.46;100.00;100028.25;5214320;54;1141131;-65
2023/08/31 11:48:29;;;;;;;5.50;4.70;;;;;;;16.57;100.00;100030.22;5186819;55;1140651;-65
2023/08/31 11:53:35;;;;;;;9.33;5.63;;;;;;;16.67;100.00;100033.56;5192494;54;1140666;-65
2023/08/31 11:58:45;;;;;;;5.63;4.83;;;;;;;16.96;100.00;100047.17;5243095;54;1140987;-65
2023/08/31 12:03:52;;;;;;;5.47;4.25;;;;;;;17.07;100.00;100045.50;5230071;54;1140687;-64
2023/08/31 12:08:57;;;;;;;3.00;2.80;;;;;;;17.46;100.00;100045.98;5187157;55;1140987;-65
2023/08/31 12:14:07;;;;;;;3.60;2.83;;;;;;;17.49;100.00;100038.45;5224744;54;1140896;-65
2023/08/31 12:19:12;;;;;;;6.90;2.53;;;;;;;17.33;100.00;100036.36;5267045;54;1140910;-65
2023/08/31 12:24:19;;;;;;;12.63;4.43;;;;;;;17.39;100.00;100033.84;5014767;55;1140853;-64
2023/08/31 12:29:24;;;;;;;4.78;2.00;;;;;;;17.41;100.00;100039.84;5050484;56;1143022;-66
2023/08/31 12:34:34;;;;;;;5.45;1.80;;;;;;;17.47;100.00;100039.63;5056111;55;1141139;-65
2023/08/31 12:39:44;;;;;;;6.77;2.33;;;;;;;17.57;100.00;100034.89;5067450;55;1141093;-64
2023/08/31 12:44:48;;;;;;;5.03;2.00;;;;;;;17.41;100.00;100046.53;5051687;56;1140966;-65
2023/08/31 12:49:54;;;;;;;2.52;2.33;;;;;;;17.33;100.00;100057.75;5057095;55;1140833;-66
2023/08/31 12:54:59;;;;;;;5.60;2.87;;;;;;;17.06;100.00;100053.18;5261210;54;1140871;-66
2023/08/31 13:00:11;;;;;;;2.45;2.00;;;;;;;16.84;100.00;100068.58;5297141;54;1140605;-66
2023/08/31 13:05:14;;;;;;;4.57;2.70;;;;;;;16.75;100.00;100069.12;5075826;55;1141072;-64
2023/08/31 13:10:20;;;;;;;6.83;3.00;;;;;;;16.69;100.00;100084.97;5231723;54;1140734;-65
2023/08/31 13:15:26;;;;;;;6.00;3.57;;;;;;;16.59;100.00;100089.13;5120338;56;1140994;-64
2023/08/31 13:20:32;;;;;;;3.20;1.37;;;;;;;16.37;100.00;100079.95;5188959;55;1141121;-65
2023/08/31 13:25:39;;;;;;;1.97;1.80;;;;;;;16.16;100.00;100079.12;5192991;54;1140799;-64
2023/08/31 13:30:44;;;;;;;3.70;1.20;;;;;;;16.15;100.00;100071.28;5281238;54;1140980;-65
2023/08/31 13:35:50;;;;;;;1.90;1.23;;;;;;;16.46;100.00;100058.11;5257518;54;1140706;-66
2023/08/31 13:40:59;;;;;;;1.33;1.00;;;;;;;16.92;100.00;100073.92;5231626;54;1140852;-66
2023/08/31 13:46:04;;;;;;;3.75;1.07;;;;;;;17.40;100.00;100082.30;5235148;54;1140722;-66
2023/08/31 13:51:10;;;;;;;2.80;1.43;;;;;;;17.58;100.00;100089.53;5206504;55;1140716;-66
2023/08/31 13:56:16;;;;;;;1.20;1.10;;;;;;;17.70;100.00;100082.02;5210574;54;1141163;-67
2023/08/31 14:01:22;;;;;;;1.30;1.10;;;;;;;17.78;100.00;100080.61;5228031;55;1140825;-65
2023/08/31 14:06:27;;;;;;;1.72;1.62;;;;;;;17.89;100.00;100080.70;5204445;54;1140822;-66
2023/08/31 14:11:33;;;;;;;2.67;1.02;;;;;;;18.13;100.00;100089.09;5199365;55;1141240;-65
2023/08/31 14:16:39;;;;;;;2.22;1.27;;;;;;;18.31;100.00;100094.99;5067483;56;1140791;-66
2023/08/31 14:21:57;;;;;;;2.70;1.32;;;;;;;18.49;100.00;100102.69;5103073;56;1237713;-65
2023/08/31 14:27:03;;;;;;;1.47;1.37;;;;;;;18.54;100.00;100111.02;5103869;56;1248567;-66
2023/08/31 14:32:09;;;;;;;1.60;1.42;;;;;;;18.43;100.00;100112.80;5013445;56;1242048;-65
2023/08/31 14:37:15;;;;;;;1.82;1.10;;;;;;;18.16;100.00;100116.85;5103614;56;1186046;-66
2023/08/31 14:42:21;;;;;;;1.30;1.00;;;;;;;17.93;100.00;100111.46;5007711;57;1253134;-67
2023/08/31 14:47:26;;;;;;;2.53;1.40;;;;;;;17.65;100.00;100124.48;4975467;57;1258277;-67
2023/08/31 14:52:32;;;;;;;4.83;1.65;;;;;;;17.50;100.00;100130.20;5227724;54;1258683;-67
2023/08/31 14:57:41;;;;;;;4.30;1.90;;;;;;;17.44;100.00;100132.22;5207713;54;1186510;-67
2023/08/31 15:02:48;;;;;;;3.63;2.10;;;;;;;17.31;100.00;100127.42;5059665;56;1256046;-68
2023/08/31 15:07:53;;;;;;;2.15;1.95;;;;;;;17.34;100.00;100123.57;5086316;56;1258202;-67
2023/08/31 15:12:59;;;;;;;2.90;1.80;;;;;;;17.45;100.00;100130.70;5017673;56;1258749;-66
2023/08/31 15:18:05;;;;;;;5.62;1.62;;;;;;;17.60;100.00;100122.80;5060752;56;1257482;-65
2023/08/31 15:23:12;;;;;;;4.33;2.03;;;;;;;17.73;100.00;100122.27;5066624;56;1257929;-65
2023/08/31 15:28:18;;;;;;;1.65;1.55;;;;;;;17.87;100.00;100132.25;5101816;56;1140750;-65
2023/08/31 15:33:27;;;;;;;3.12;1.32;;;;;;;18.00;100.00;100137.02;5097913;56;1255229;-66
2023/08/31 15:38:33;;;;;;;3.00;1.35;;;;;;;18.02;100.00;100142.53;5119543;56;1140902;-66
2023/08/31 15:43:39;;;;;;;1.35;1.15;;;;;;;18.03;100.00;100160.23;5138320;56;1141081;-66
2023/08/31 15:48:44;;;;;;;4.67;1.87;;;;;;;17.98;100.00;100161.78;5118897;56;1140987;-66
2023/08/31 15:53:50;;;;;;;1.30;1.20;;;;;;;18.03;100.00;100165.58;5119137;56;1140920;-67
2023/08/31 15:58:58;;;;;;;1.55;1.45;;;;;;;18.02;100.00;100165.28;5122750;56;1140784;-66
2023/08/31 16:04:03;;;;;;;4.00;1.40;;;;;;;17.95;100.00;100164.30;5021800;56;1140805;-67
2023/08/31 16:09:09;;;;;;;1.88;1.18;;;;;;;17.95;100.00;100175.50;5125780;56;1148736;-67
2023/08/31 16:14:15;;;;;;;2.55;1.35;;;;;;;17.82;100.00;100168.88;5105578;56;1140972;-66
2023/08/31 16:19:21;;;;;;;2.70;1.10;;;;;;;17.73;100.00;100165.05;5023342;57;1241388;-65
2023/08/31 16:24:26;;;;;;;2.00;1.20;;;;;;;17.64;100.00;100171.45;5038886;56;1166378;-66
2023/08/31 16:29:32;;;;;;;5.67;1.40;;;;;;;17.52;100.00;100178.99;5109984;56;1140936;-66
2023/08/31 16:34:38;;;;;;;1.95;1.27;;;;;;;17.41;100.00;100185.55;5134295;55;1140772;-66
2023/08/31 16:39:43;;;;;;;3.80;1.30;;;;;;;17.36;100.00;100179.03;5042472;56;1140747;-68
2023/08/31 16:44:49;;;;;;;3.43;1.60;;;;;;;17.30;100.00;100181.05;5047879;56;1140809;-66
2023/08/31 16:49:56;;;;;;;3.30;1.30;;;;;;;17.26;100.00;100179.73;5042199;57;1140639;-66
2023/08/31 16:55:03;;;;;;;3.10;1.70;;;;;;;17.17;100.00;100185.08;5095881;56;1140876;-65
2023/08/31 17:00:10;;;;;;;1.67;1.43;;;;;;;17.13;100.00;100173.55;5122083;56;1140741;-66
2023/08/31 17:05:17;;;;;;;6.72;2.00;;;;;;;17.15;100.00;100173.72;5146611;56;1140619;-66
2023/08/31 17:10:23;;;;;;;6.67;3.83;;;;;;;17.10;100.00;100180.10;5145959;56;1140907;-66
2023/08/31 17:15:31;;;;;;;11.25;6.78;;;;;;;17.05;100.00;100181.09;5061576;57;1140981;-66
2023/08/31 17:20:38;;;;;;;10.50;4.83;;;;;;;17.00;100.00;100186.10;5140305;56;1143102;-66
2023/08/31 17:25:45;;;;;;;5.87;2.90;;;;;;;16.94;100.00;100185.45;5145849;56;1143019;-66
2023/08/31 17:30:50;;;;;;;8.77;5.27;;;;;;;16.92;100.00;100181.28;5060024;57;1140961;-66
2023/08/31 17:35:56;;;;;;;6.17;3.40;;;;;;;16.85;100.00;100175.77;5144467;56;1141115;-66
2023/08/31 17:41:03;;;;;;;3.70;2.47;;;;;;;16.77;100.00;100184.62;5060608;57;1141127;-67
2023/08/31 17:46:09;;;;;;;8.23;2.20;;;;;;;16.69;100.00;100187.28;5146213;56;1140888;-66
2023/08/31 18:05:55;;;;;;;1.73;1.60;;;;;;;16.59;100.00;100193.75;5172277;55;46737;-65
2023/08/31 18:11:01;;;;;;;7.33;3.70;;;;;;;16.24;100.00;100197.52;5027626;56;1136871;-65
2023/08/31 18:16:06;;;;;;;6.87;3.60;;;;;;;16.15;100.00;100198.02;5045200;57;1140747;-65
2023/08/31 18:21:12;;;;;;;7.03;4.87;;;;;;;16.15;100.00;100205.52;5207771;55;1140598;-65
2023/08/31 18:26:18;;;;;;;6.40;3.00;;;;;;;16.21;100.00;100211.19;5185239;55;1140669;-65
2023/08/31 18:31:24;;;;;;;9.53;3.40;;;;;;;16.08;100.00;100211.16;5212985;55;1141291;-65
2023/08/31 18:36:30;;;;;;;4.50;3.10;;;;;;;16.08;100.00;100211.16;5191966;55;1141219;-65
2023/08/31 18:41:38;;;;;;;6.13;3.80;;;;;;;16.00;100.00;100218.31;5192854;55;1140995;-64
2023/08/31 18:46:44;;;;;;;6.17;4.23;;;;;;;15.88;100.00;100220.44;5213102;55;1140851;-64
2023/08/31 18:51:49;;;;;;;4.53;2.97;;;;;;;15.67;100.00;100219.99;5194873;55;1140693;-65
2023/08/31 18:56:55;;;;;;;5.40;2.50;;;;;;;15.46;100.00;100215.00;5121304;55;1140835;-64
2023/08/31 19:02:02;;;;;;;11.80;5.53;;;;;;;15.34;100.00;100223.77;5177755;55;1140822;-65
2023/08/31 19:07:08;;;;;;;5.63;3.03;;;;;;;15.25;100.00;100218.55;5189807;55;1142740;-66
2023/08/31 19:12:13;;;;;;;6.03;2.50;;;;;;;15.16;100.00;100222.97;5190214;55;1141004;-66
2023/08/31 19:17:19;;;;;;;3.10;2.20;;;;;;;15.06;100.00;100229.73;5217325;55;1140969;-66
2023/08/31 19:22:24;;;;;;;4.20;2.70;;;;;;;14.99;100.00;100230.49;5204784;55;1140554;-66
2023/08/31 19:27:30;;;;;;;7.97;2.60;;;;;;;14.91;100.00;100230.44;5210374;55;1141011;-66
2023/08/31 19:32:36;;;;;;;3.50;2.20;;;;;;;14.82;100.00;100231.38;5211290;55;1141075;-66
2023/08/31 19:37:41;;;;;;;2.33;1.70;;;;;;;14.78;100.00;100232.17;5231516;55;1140704;-66
2023/08/31 19:42:50;;;;;;;3.17;1.60;;;;;;;14.75;100.00;100237.30;5210456;55;1141041;-66
2023/08/31 19:47:57;;;;;;;2.73;2.03;;;;;;;14.70;100.00;100242.72;5207365;55;1140802;-65
2023/08/31 19:53:03;;;;;;;4.66;2.16;;;;;;;14.66;100.00;100242.22;5223599;55;1140492;-65
2023/08/31 19:58:08;;;;;;;3.63;2.23;;;;;;;14.61;100.00;100244.98;5232724;55;1140925;-65
2023/08/31 20:03:14;;;;;;;3.57;1.83;;;;;;;14.55;100.00;100245.57;5196527;55;1140953;-66
2023/08/31 20:08:20;;;;;;;4.03;1.97;;;;;;;14.51;100.00;100244.22;5223571;55;1141028;-66
2023/08/31 20:13:25;;;;;;;2.17;1.90;;;;;;;14.43;100.00;100242.30;5200627;55;1140888;-66
2023/08/31 20:18:31;;;;;;;5.47;2.00;;;;;;;14.39;100.00;100242.22;5199464;55;1140960;-66
2023/08/31 20:23:37;;;;;;;3.27;2.13;;;;;;;14.36;100.00;100247.86;5199926;55;1140762;-65
2023/08/31 20:28:42;;;;;;;4.03;1.53;;;;;;;14.28;100.00;100249.92;5220912;55;1140754;-64
2023/08/31 20:33:48;;;;;;;4.47;2.50;;;;;;;14.26;100.00;100241.25;5200677;55;1140801;-66
2023/08/31 20:38:53;;;;;;;5.93;2.70;;;;;;;14.29;100.00;100242.78;5200195;55;1140748;-65
2023/08/31 20:44:04;;;;;;;4.93;2.27;;;;;;;14.29;100.00;100247.61;5221384;55;1140657;-66
2023/08/31 20:49:10;;;;;;;3.30;1.87;;;;;;;14.27;100.00;100244.26;5199958;55;1140694;-65
2023/08/31 20:54:16;;;;;;;10.87;3.67;;;;;;;14.24;100.00;100244.55;5219504;54;1140904;-65
2023/08/31 20:59:21;;;;;;;3.47;2.13;;;;;;;14.16;100.00;100252.45;5278056;54;1142794;-65
2023/08/31 21:04:27;;;;;;;4.00;2.82;;;;;;;14.11;100.00;100253.38;5132212;54;1140859;-65
2023/08/31 21:09:32;;;;;;;3.80;2.70;;;;;;;14.06;100.00;100260.95;5113605;56;1140798;-66
2023/08/31 21:14:38;;;;;;;6.40;3.52;;;;;;;14.02;100.00;100263.58;5113755;56;1140912;-65
2023/08/31 21:19:43;;;;;;;5.60;3.33;;;;;;;13.97;100.00;100277.31;5132597;56;1140836;-65
2023/08/31 21:24:49;;;;;;;11.60;5.27;;;;;;;13.93;100.00;100280.40;5112997;56;1140706;-65
2023/08/31 21:29:55;;;;;;;4.80;3.37;;;;;;;13.92;100.00;100277.39;5112674;56;1142765;-66
2023/08/31 21:35:01;;;;;;;4.43;3.07;;;;;;;13.86;100.00;100276.66;5133467;56;1140760;-66
2023/08/31 21:40:07;;;;;;;3.80;2.83;;;;;;;13.84;100.00;100275.97;5112964;56;1140854;-65
2023/08/31 21:45:13;;;;;;;8.23;3.30;;;;;;;13.76;100.00;100279.83;5113696;56;1140605;-66
2023/08/31 21:50:18;;;;;;;3.93;2.60;;;;;;;13.67;100.00;100279.73;5175154;54;1140882;-65
2023/08/31 21:55:25;;;;;;;3.20;2.50;;;;;;;13.64;100.00;100295.12;5257975;55;1140680;-67
2023/08/31 22:00:31;;;;;;;3.05;2.67;;;;;;;13.55;100.00;100294.17;5252841;54;1140935;-66
2023/08/31 22:05:38;;;;;;;3.12;2.76;;;;;;;13.48;100.00;100302.36;5114431;55;1140950;-66
2023/08/31 22:10:44;;;;;;;6.80;3.77;;;;;;;13.45;100.00;100309.27;5132279;56;1140691;-66
2023/08/31 22:15:52;;;;;;;8.07;3.03;;;;;;;13.41;100.00;100308.39;5110487;56;1140665;-65
2023/08/31 22:20:56;;;;;;;4.83;2.90;;;;;;;13.33;100.00;100315.24;5110733;56;1140732;-65
2023/08/31 22:26:04;;;;;;;3.80;2.93;;;;;;;13.29;100.00;100327.12;5131348;56;1140715;-66
2023/08/31 22:31:09;;;;;;;4.90;3.73;;;;;;;13.23;100.00;100330.84;5111321;56;1140906;-65
2023/08/31 22:36:15;;;;;;;8.30;3.07;;;;;;;13.16;100.00;100324.41;5111364;56;1141502;-66
2023/08/31 22:41:20;;;;;;;3.92;2.85;;;;;;;13.15;100.00;100330.69;5131476;56;1140827;-65
2023/08/31 22:46:26;;;;;;;3.90;2.50;;;;;;;13.12;100.00;100322.52;5156217;54;1140680;-65
2023/08/31 22:51:32;;;;;;;3.45;2.95;;;;;;;13.14;100.00;100323.18;5280288;54;1140935;-65
2023/08/31 22:56:38;;;;;;;5.70;2.20;;;;;;;13.12;100.00;100318.53;5279520;54;1140987;-65
2023/08/31 23:01:43;;;;;;;4.87;2.30;;;;;;;13.10;100.00;100329.77;5247881;54;1140818;-65
2023/08/31 23:06:50;;;;;;;4.83;2.57;;;;;;;13.08;100.00;100325.58;5111569;56;1140830;-66
2023/08/31 23:12:03;;;;;;;4.17;2.33;;;;;;;13.01;100.00;100326.12;5111436;56;1140901;-65
2023/08/31 23:17:08;;;;;;;3.17;2.40;;;;;;;12.99;100.00;100335.20;5134504;56;1140981;-65